createdAt,value
2023-03-25T00:07:41.722Z,980.57
2023-03-25T00:08:41.624Z,980.62
2023-03-25T00:09:41.846Z,980.67
2023-03-25T00:10:41.450Z,980.66
2023-03-25T00:12:41.289Z,980.61
2023-03-25T00:26:45.725Z,981.03
2023-03-25T00:27:45.644Z,980.97
2023-03-25T00:28:45.547Z,981.03
2023-03-25T00:29:45.466Z,981.07
2023-03-25T00:30:45.440Z,981.13
2023-03-25T00:31:45.290Z,981.22
2023-03-25T00:32:45.226Z,981.26
2023-03-25T00:33:45.134Z,981.26
2023-03-25T00:34:45.047Z,981.28
2023-03-25T00:35:45.074Z,981.30
2023-03-25T00:36:44.885Z,981.25
2023-03-25T00:37:44.797Z,981.28
2023-03-25T00:38:44.719Z,981.30
2023-03-25T00:39:44.637Z,981.38
2023-03-25T00:40:44.558Z,981.48
2023-03-25T00:41:44.478Z,981.43
2023-03-25T00:42:44.410Z,981.46
2023-03-25T00:43:44.708Z,981.45
2023-03-25T00:44:44.228Z,981.46
2023-03-25T00:45:44.145Z,981.47
2023-03-25T00:46:44.083Z,981.48
2023-03-25T00:47:44.004Z,981.52
2023-03-25T00:48:43.902Z,981.47
2023-03-25T00:49:43.822Z,981.49
2023-03-25T00:50:43.735Z,981.50
2023-03-25T00:51:52.767Z,981.50
2023-03-25T00:52:43.573Z,981.50
2023-03-25T00:53:43.796Z,981.45
2023-03-25T00:54:43.409Z,981.50
2023-03-25T00:55:43.322Z,981.50
2023-03-25T00:56:43.269Z,981.45
2023-03-25T00:57:43.162Z,981.48
2023-03-25T00:58:43.101Z,981.53
2023-03-25T00:59:43.194Z,981.48
2023-03-25T01:00:42.917Z,981.45
2023-03-25T01:01:42.844Z,981.51
2023-03-25T01:02:42.810Z,981.42
2023-03-25T01:03:42.749Z,981.45
2023-03-25T01:04:43.004Z,981.45
2023-03-25T01:05:42.504Z,981.32
2023-03-25T01:06:42.422Z,981.31
2023-03-25T01:07:42.362Z,981.34
2023-03-25T01:08:42.257Z,981.32
2023-03-25T01:09:42.172Z,981.43
2023-03-25T01:10:42.093Z,981.53
2023-03-25T01:11:42.011Z,981.45
2023-03-25T01:12:41.926Z,981.53
2023-03-25T01:13:41.847Z,981.55
2023-03-25T01:14:41.790Z,981.48
2023-03-25T01:15:41.709Z,981.43
2023-03-25T01:16:41.610Z,981.39
2023-03-25T01:17:41.523Z,981.38
2023-03-25T01:18:41.436Z,981.37
2023-03-25T01:19:41.347Z,981.32
2023-03-25T01:20:41.269Z,981.40
2023-03-25T01:21:41.192Z,981.31
2023-03-25T01:22:41.112Z,981.31
2023-03-25T01:23:41.019Z,981.28
2023-03-25T01:24:40.943Z,981.43
2023-03-25T01:25:40.855Z,981.31
2023-03-25T01:26:40.777Z,981.35
2023-03-25T01:27:40.690Z,981.30
2023-03-25T01:28:40.610Z,981.30
2023-03-25T01:29:40.531Z,981.31
2023-03-25T01:30:40.489Z,981.50
2023-03-25T01:31:40.402Z,981.35
2023-03-25T01:32:40.299Z,981.36
2023-03-25T01:33:40.215Z,981.31
2023-03-25T01:34:40.122Z,981.35
2023-03-25T01:35:40.049Z,981.41
2023-03-25T01:36:39.982Z,981.48
2023-03-25T01:37:39.871Z,981.36
2023-03-25T01:38:39.802Z,981.47
2023-03-25T01:39:39.710Z,981.48
2023-03-25T01:40:39.624Z,981.36
2023-03-25T01:41:48.936Z,981.36
2023-03-25T01:42:39.459Z,981.30
2023-03-25T01:43:39.376Z,981.34
2023-03-25T01:44:39.297Z,981.29
2023-03-25T01:45:39.218Z,981.24
2023-03-25T01:46:39.183Z,981.19
2023-03-25T01:47:39.079Z,981.18
2023-03-25T01:49:22.321Z,981.30
2023-03-25T01:50:22.254Z,981.25
2023-03-25T01:51:22.158Z,981.30
2023-03-25T01:52:22.075Z,981.22
2023-03-25T01:53:21.992Z,981.28
2023-03-25T01:54:21.908Z,981.27
2023-03-25T01:55:21.829Z,981.21
2023-03-25T01:56:21.746Z,981.18
2023-03-25T01:58:19.156Z,981.11
2023-03-25T01:59:19.068Z,981.08
2023-03-25T02:00:18.991Z,981.05
2023-03-25T02:01:18.946Z,981.07
2023-03-25T02:02:18.992Z,981.05
2023-03-25T02:03:18.803Z,981.00
2023-03-25T02:04:18.661Z,981.01
2023-03-25T02:05:18.576Z,981.02
2023-03-25T02:06:18.498Z,980.96
2023-03-25T02:07:18.412Z,981.00
2023-03-25T02:08:18.332Z,980.98
2023-03-25T02:09:18.245Z,980.97
2023-03-25T02:10:18.162Z,980.92
2023-03-25T02:11:18.094Z,980.95
2023-03-25T02:12:18.001Z,980.98
2023-03-25T02:13:17.923Z,980.95
2023-03-25T02:14:17.834Z,981.03
2023-03-25T02:15:17.786Z,981.01
2023-03-25T02:16:17.773Z,981.01
2023-03-25T02:17:17.587Z,981.07
2023-03-25T02:18:17.520Z,981.07
2023-03-25T02:19:17.421Z,981.03
2023-03-25T02:20:17.341Z,981.06
2023-03-25T02:21:17.260Z,981.07
2023-03-25T02:22:17.196Z,981.13
2023-03-25T02:23:17.099Z,981.16
2023-03-25T02:24:17.010Z,981.23
2023-03-25T02:25:16.927Z,981.34
2023-03-25T02:26:16.848Z,981.38
2023-03-25T02:27:16.761Z,981.22
2023-03-25T02:28:16.679Z,981.43
2023-03-25T02:29:16.601Z,981.30
2023-03-25T02:30:16.516Z,981.39
2023-03-25T02:31:16.488Z,981.40
2023-03-25T02:32:16.365Z,981.28
2023-03-25T02:33:16.267Z,981.39
2023-03-25T02:34:16.218Z,981.36
2023-03-25T02:35:16.102Z,981.34
2023-03-25T02:36:16.025Z,981.33
2023-03-25T02:37:15.949Z,981.29
2023-03-25T02:38:15.851Z,981.34
2023-03-25T02:39:15.772Z,981.32
2023-03-25T02:40:15.736Z,981.25
2023-03-25T02:41:15.603Z,981.27
2023-03-25T02:42:15.923Z,981.12
2023-03-25T02:43:15.449Z,981.16
2023-03-25T02:44:15.357Z,981.17
2023-03-25T02:45:15.320Z,981.18
2023-03-25T02:46:15.221Z,981.27
2023-03-25T02:47:15.104Z,981.11
2023-03-25T02:48:15.027Z,981.14
2023-03-25T02:49:14.939Z,981.10
2023-03-25T02:50:14.877Z,981.13
2023-03-25T02:51:14.771Z,981.11
2023-03-25T02:52:14.692Z,981.19
2023-03-25T02:53:14.608Z,981.28
2023-03-25T02:54:14.759Z,981.30
2023-03-25T02:55:14.435Z,981.37
2023-03-25T02:56:14.390Z,981.31
2023-03-25T02:57:14.304Z,981.39
2023-03-25T02:58:15.038Z,981.40
2023-03-25T02:59:14.115Z,981.43
2023-03-25T03:00:14.020Z,981.47
2023-03-25T03:01:13.980Z,981.41
2023-03-25T03:02:13.951Z,981.39
2023-03-25T03:03:13.844Z,981.35
2023-03-25T03:04:13.691Z,981.28
2023-03-25T03:05:13.605Z,981.37
2023-03-25T03:06:13.542Z,981.19
2023-03-25T03:07:13.437Z,981.24
2023-03-25T03:08:13.354Z,981.25
2023-03-25T03:09:13.270Z,981.24
2023-03-25T03:10:13.190Z,981.26
2023-03-25T03:11:13.123Z,981.20
2023-03-25T03:12:13.022Z,981.28
2023-03-25T03:13:12.937Z,981.28
2023-03-25T03:14:13.254Z,981.27
2023-03-25T03:15:12.772Z,981.24
2023-03-25T03:16:12.726Z,981.23
2023-03-25T03:17:12.805Z,981.25
2023-03-25T03:18:12.675Z,981.18
2023-03-25T03:19:54.916Z,981.27
2023-03-25T03:20:54.836Z,981.26
2023-03-25T03:21:54.773Z,981.25
2023-03-25T03:22:54.666Z,981.16
2023-03-25T03:23:54.583Z,981.21
2023-03-25T03:24:55.108Z,981.39
2023-03-25T03:25:54.415Z,981.12
2023-03-25T03:26:54.331Z,981.24
2023-03-25T03:27:54.248Z,981.14
2023-03-25T03:28:54.168Z,981.20
2023-03-25T03:30:54.037Z,981.30
2023-03-25T03:32:06.232Z,981.14
2023-03-25T03:32:54.067Z,981.21
2023-03-25T03:33:53.749Z,981.15
2023-03-25T03:47:12.535Z,981.27
2023-03-25T03:48:12.486Z,981.24
2023-03-25T03:49:12.337Z,981.27
2023-03-25T03:50:12.259Z,981.26
2023-03-25T03:51:12.178Z,981.21
2023-03-25T03:52:12.104Z,981.28
2023-03-25T03:53:12.001Z,981.34
2023-03-25T03:54:11.918Z,981.27
2023-03-25T03:55:11.833Z,981.25
2023-03-25T03:56:11.752Z,981.25
2023-03-25T03:57:11.709Z,981.26
2023-03-25T03:58:11.583Z,981.31
2023-03-25T03:59:11.537Z,981.39
2023-03-25T04:00:11.413Z,981.36
2023-03-25T04:01:11.336Z,981.32
2023-03-25T04:02:11.302Z,981.25
2023-03-25T04:03:11.320Z,981.39
2023-03-25T04:04:11.096Z,981.26
2023-03-25T04:05:10.996Z,981.30
2023-03-25T04:06:10.914Z,981.33
2023-03-25T04:07:10.840Z,981.29
2023-03-25T04:08:10.746Z,981.28
2023-03-25T04:09:10.672Z,981.26
2023-03-25T04:10:10.577Z,981.31
2023-03-25T04:11:10.497Z,981.30
2023-03-25T04:12:10.408Z,981.36
2023-03-25T04:13:10.328Z,981.34
2023-03-25T04:14:10.273Z,981.32
2023-03-25T04:15:10.157Z,981.30
2023-03-25T04:16:10.259Z,981.39
2023-03-25T04:17:09.998Z,981.37
2023-03-25T04:18:09.913Z,981.40
2023-03-25T04:19:09.851Z,981.28
2023-03-25T04:20:09.740Z,981.60
2023-03-25T04:21:09.658Z,981.43
2023-03-25T04:22:09.577Z,981.46
2023-03-25T04:23:09.491Z,981.54
2023-03-25T04:24:09.406Z,981.52
2023-03-25T04:25:09.372Z,981.53
2023-03-25T04:26:09.238Z,981.46
2023-03-25T04:27:09.159Z,981.56
2023-03-25T04:28:09.076Z,981.50
2023-03-25T04:29:08.990Z,981.34
2023-03-25T04:30:08.905Z,981.45
2023-03-25T04:31:08.898Z,981.33
2023-03-25T04:32:08.838Z,981.40
2023-03-25T04:33:08.863Z,981.32
2023-03-25T04:34:08.570Z,981.32
2023-03-25T04:35:08.512Z,981.35
2023-03-25T04:36:08.450Z,981.37
2023-03-25T04:37:08.319Z,981.27
2023-03-25T04:38:08.240Z,981.31
2023-03-25T04:39:08.157Z,981.25
2023-03-25T04:40:08.078Z,981.45
2023-03-25T04:41:08.024Z,981.44
2023-03-25T04:42:07.904Z,981.41
2023-03-25T04:43:07.818Z,981.49
2023-03-25T04:44:07.780Z,981.54
2023-03-25T04:45:07.670Z,981.56
2023-03-25T04:46:07.620Z,981.49
2023-03-25T04:47:07.486Z,981.51
2023-03-25T04:48:07.399Z,981.57
2023-03-25T04:49:07.320Z,981.54
2023-03-25T04:50:07.233Z,981.59
2023-03-25T04:51:07.169Z,981.61
2023-03-25T04:52:07.069Z,981.59
2023-03-25T04:53:06.987Z,981.57
2023-03-25T04:54:06.900Z,981.67
2023-03-25T04:55:07.171Z,981.62
2023-03-25T04:56:06.729Z,981.63
2023-03-25T04:57:06.669Z,981.65
2023-03-25T04:58:06.569Z,981.68
2023-03-25T04:59:06.515Z,981.54
2023-03-25T05:00:06.644Z,981.69
2023-03-25T05:01:06.522Z,981.70
2023-03-25T05:02:06.234Z,981.77
2023-03-25T05:03:06.176Z,981.69
2023-03-25T05:04:06.332Z,981.71
2023-03-25T05:05:05.980Z,981.65
2023-03-25T05:10:14.689Z,981.74
2023-03-25T05:11:14.587Z,981.74
2023-03-25T05:12:14.500Z,981.65
2023-03-25T05:13:14.413Z,981.72
2023-03-25T05:14:14.531Z,981.74
2023-03-25T05:15:14.300Z,981.69
2023-03-25T05:16:14.209Z,981.77
2023-03-25T05:17:14.086Z,981.70
2023-03-25T05:18:14.027Z,981.80
2023-03-25T05:19:13.908Z,981.73
2023-03-25T05:20:14.032Z,981.74
2023-03-25T05:21:13.752Z,981.75
2023-03-25T05:22:13.660Z,981.79
2023-03-25T05:23:13.577Z,981.78
2023-03-25T05:24:13.604Z,981.74
2023-03-25T05:25:13.428Z,981.73
2023-03-25T05:26:13.346Z,981.71
2023-03-25T05:27:13.249Z,981.81
2023-03-25T05:28:13.159Z,981.68
2023-03-25T05:29:13.073Z,981.74
2023-03-25T05:30:13.094Z,981.78
2023-03-25T05:31:12.907Z,981.76
2023-03-25T05:32:12.825Z,981.76
2023-03-25T05:33:13.192Z,981.75
2023-03-25T05:34:12.666Z,981.74
2023-03-25T05:35:12.585Z,981.81
2023-03-25T05:36:12.493Z,981.89
2023-03-25T05:37:12.409Z,981.81
2023-03-25T05:38:12.363Z,981.82
2023-03-25T05:39:12.258Z,981.91
2023-03-25T05:40:15.100Z,981.87
2023-03-25T05:41:12.078Z,981.92
2023-03-25T05:42:12.559Z,981.95
2023-03-25T05:43:11.909Z,981.84
2023-03-25T05:55:29.870Z,982.04
2023-03-25T05:56:29.898Z,981.92
2023-03-25T05:57:29.723Z,982.00
2023-03-25T05:58:29.628Z,981.96
2023-03-25T05:59:29.536Z,981.87
2023-03-25T06:00:29.454Z,981.92
2023-03-25T06:01:33.231Z,982.02
2023-03-25T06:02:29.359Z,981.96
2023-03-25T06:03:29.302Z,981.91
2023-03-25T06:04:29.123Z,981.98
2023-03-25T06:05:29.048Z,981.95
2023-03-25T06:06:28.956Z,982.05
2023-03-25T06:07:28.877Z,981.93
2023-03-25T06:08:28.792Z,982.05
2023-03-25T06:09:28.704Z,982.03
2023-03-25T06:10:28.668Z,982.04
2023-03-25T06:11:28.540Z,982.02
2023-03-25T06:12:28.453Z,982.04
2023-03-25T06:13:28.815Z,982.07
2023-03-25T06:14:28.291Z,981.98
2023-03-25T06:15:28.204Z,982.04
2023-03-25T06:16:28.156Z,982.00
2023-03-25T06:17:28.070Z,982.03
2023-03-25T06:18:28.203Z,982.05
2023-03-25T06:19:27.870Z,982.00
2023-03-25T06:20:27.891Z,982.05
2023-03-25T06:21:27.729Z,982.10
2023-03-25T06:22:27.621Z,982.04
2023-03-25T06:23:27.540Z,982.03
2023-03-25T06:24:27.459Z,982.13
2023-03-25T06:25:27.373Z,982.18
2023-03-25T06:26:27.290Z,982.14
2023-03-25T06:27:27.208Z,982.17
2023-03-25T06:28:27.323Z,982.17
2023-03-25T06:29:27.065Z,982.13
2023-03-25T06:46:47.792Z,982.27
2023-03-25T06:47:47.714Z,982.34
2023-03-25T06:48:47.599Z,982.41
2023-03-25T06:50:34.999Z,982.40
2023-03-25T06:51:34.912Z,982.39
2023-03-25T06:52:34.832Z,982.40
2023-03-25T06:53:34.770Z,982.39
2023-03-25T06:54:34.672Z,982.40
2023-03-25T06:55:34.641Z,982.33
2023-03-25T06:56:34.524Z,982.27
2023-03-25T06:57:34.422Z,982.35
2023-03-25T06:58:34.330Z,982.31
2023-03-25T06:59:34.267Z,982.26
2023-03-25T07:00:34.184Z,982.35
2023-03-25T07:01:34.089Z,982.34
2023-03-25T07:02:34.045Z,982.34
2023-03-25T07:03:33.929Z,982.34
2023-03-25T07:04:33.834Z,982.33
2023-03-25T07:05:33.920Z,982.26
2023-03-25T07:06:33.684Z,982.25
2023-03-25T07:07:33.591Z,982.16
2023-03-25T07:08:33.513Z,982.27
2023-03-25T07:09:33.422Z,982.22
2023-03-25T07:10:33.340Z,982.18
2023-03-25T07:11:33.311Z,982.18
2023-03-25T07:12:33.271Z,982.23
2023-03-25T07:13:33.091Z,982.23
2023-03-25T07:14:33.009Z,982.29
2023-03-25T07:15:32.924Z,982.30
2023-03-25T07:16:32.887Z,982.32
2023-03-25T07:17:32.803Z,982.22
2023-03-25T07:18:32.697Z,982.20
2023-03-25T07:19:32.593Z,982.18
2023-03-25T07:20:32.524Z,982.15
2023-03-25T07:21:32.426Z,982.10
2023-03-25T07:22:32.347Z,982.12
2023-03-25T07:23:32.260Z,982.18
2023-03-25T07:24:32.181Z,982.08
2023-03-25T07:25:32.104Z,982.09
2023-03-25T07:26:32.026Z,982.12
2023-03-25T07:27:31.944Z,982.05
2023-03-25T07:28:31.847Z,982.02
2023-03-25T07:29:31.763Z,982.15
2023-03-25T07:30:31.684Z,982.14
2023-03-25T07:31:31.626Z,982.10
2023-03-25T07:32:31.550Z,982.08
2023-03-25T07:33:31.479Z,982.11
2023-03-25T07:34:31.458Z,982.06
2023-03-25T07:35:31.357Z,982.07
2023-03-25T07:36:31.196Z,982.15
2023-03-25T07:37:31.134Z,982.14
2023-03-25T07:38:31.032Z,982.09
2023-03-25T07:39:30.936Z,982.08
2023-03-25T07:40:30.901Z,981.97
2023-03-25T07:41:30.768Z,981.92
2023-03-25T07:42:30.693Z,982.08
2023-03-25T07:43:30.604Z,982.04
2023-03-25T07:44:30.520Z,982.10
2023-03-25T07:45:30.458Z,982.09
2023-03-25T07:46:30.407Z,982.04
2023-03-25T07:47:30.292Z,982.03
2023-03-25T07:48:30.192Z,982.07
2023-03-25T07:49:30.129Z,982.05
2023-03-25T07:50:30.048Z,982.05
2023-03-25T07:51:29.944Z,982.06
2023-03-25T07:52:29.862Z,982.03
2023-03-25T07:53:29.783Z,982.24
2023-03-25T07:54:29.695Z,982.10
2023-03-25T07:55:29.620Z,982.13
2023-03-25T07:56:29.553Z,982.11
2023-03-25T07:57:29.602Z,982.12
2023-03-25T07:58:29.382Z,982.10
2023-03-25T07:59:29.572Z,982.03
2023-03-25T08:00:29.248Z,982.06
2023-03-25T08:01:29.121Z,982.03
2023-03-25T08:02:29.253Z,982.08
2023-03-25T08:03:29.013Z,982.02
2023-03-25T08:04:28.881Z,982.04
2023-03-25T08:05:28.791Z,982.04
2023-03-25T08:06:28.731Z,982.11
2023-03-25T08:07:28.647Z,981.99
2023-03-25T08:08:28.550Z,981.97
2023-03-25T08:09:28.461Z,982.02
2023-03-25T08:10:28.409Z,982.05
2023-03-25T08:11:28.296Z,982.11
2023-03-25T08:12:28.213Z,982.07
2023-03-25T08:13:28.131Z,982.02
2023-03-25T08:14:28.047Z,982.08
2023-03-25T08:15:28.165Z,982.05
2023-03-25T08:16:27.932Z,982.13
2023-03-25T08:17:27.822Z,982.17
2023-03-25T08:18:27.719Z,982.12
2023-03-25T08:19:27.637Z,982.13
2023-03-25T08:20:27.634Z,982.14
2023-03-25T08:21:27.506Z,982.09
2023-03-25T08:22:30.438Z,982.15
2023-03-25T08:23:27.308Z,982.24
2023-03-25T08:24:27.224Z,982.19
2023-03-25T08:25:27.144Z,982.23
2023-03-25T08:26:27.075Z,982.24
2023-03-25T08:27:26.980Z,982.22
2023-03-25T08:28:26.911Z,982.19
2023-03-25T08:29:26.824Z,982.24
2023-03-25T08:30:26.739Z,982.21
2023-03-25T08:31:26.694Z,982.23
2023-03-25T08:32:26.628Z,982.22
2023-03-25T08:33:26.493Z,982.16
2023-03-25T08:34:28.938Z,982.14
2023-03-25T08:35:26.343Z,982.15
2023-03-25T08:36:26.248Z,982.18
2023-03-25T08:37:26.179Z,982.20
2023-03-25T08:38:26.106Z,982.18
2023-03-25T08:39:26.005Z,982.13
2023-03-25T08:40:25.930Z,982.11
2023-03-25T08:41:25.841Z,982.16
2023-03-25T08:42:25.764Z,982.11
2023-03-25T08:43:25.680Z,982.19
2023-03-25T08:44:25.598Z,982.16
2023-03-25T08:45:25.532Z,982.24
2023-03-25T08:46:25.463Z,982.33
2023-03-25T08:47:25.375Z,982.36
2023-03-25T08:48:25.276Z,982.16
2023-03-25T08:49:25.196Z,982.26
2023-03-25T08:50:25.117Z,982.24
2023-03-25T08:51:25.033Z,982.18
2023-03-25T08:52:24.967Z,982.19
2023-03-25T08:53:25.024Z,982.11
2023-03-25T08:54:24.822Z,982.14
2023-03-25T08:55:24.959Z,981.96
2023-03-25T08:56:24.633Z,982.16
2023-03-25T08:57:24.544Z,982.10
2023-03-25T08:58:24.466Z,982.03
2023-03-25T08:59:24.385Z,982.07
2023-03-25T09:00:24.454Z,982.02
2023-03-25T09:01:24.301Z,982.03
2023-03-25T09:02:24.252Z,982.00
2023-03-25T09:03:24.061Z,981.95
2023-03-25T09:04:23.983Z,982.01
2023-03-25T09:05:24.268Z,982.06
2023-03-25T09:06:23.819Z,982.00
2023-03-25T09:07:23.740Z,981.94
2023-03-25T09:08:23.676Z,981.91
2023-03-25T09:09:23.629Z,981.94
2023-03-25T09:10:23.534Z,981.95
2023-03-25T09:11:34.068Z,981.99
2023-03-25T09:12:23.634Z,981.99
2023-03-25T09:13:23.256Z,981.97
2023-03-25T09:14:23.179Z,982.09
2023-03-25T09:15:23.472Z,982.14
2023-03-25T09:16:23.263Z,982.11
2023-03-25T09:17:23.035Z,982.09
2023-03-25T09:18:22.862Z,982.07
2023-03-25T09:19:25.391Z,982.17
2023-03-25T09:20:22.692Z,982.08
2023-03-25T09:21:22.605Z,982.09
2023-03-25T09:22:22.543Z,982.14
2023-03-25T09:23:22.447Z,982.06
2023-03-25T09:24:22.365Z,982.23
2023-03-25T09:25:22.286Z,982.24
2023-03-25T09:26:22.227Z,982.25
2023-03-25T09:27:22.125Z,982.10
2023-03-25T09:29:21.970Z,982.24
2023-03-25T09:30:21.887Z,982.27
2023-03-25T09:31:21.816Z,982.27
2023-03-25T09:32:21.728Z,982.29
2023-03-25T09:33:21.658Z,982.38
2023-03-25T09:34:21.867Z,982.22
2023-03-25T09:35:21.524Z,982.13
2023-03-25T09:36:21.422Z,982.20
2023-03-25T09:37:21.326Z,982.23
2023-03-25T09:38:21.244Z,982.25
2023-03-25T09:39:21.173Z,982.13
2023-03-25T09:40:21.082Z,982.16
2023-03-25T09:41:21.004Z,982.12
2023-03-25T09:42:20.947Z,982.11
2023-03-25T09:43:20.844Z,982.06
2023-03-25T09:44:20.768Z,981.99
2023-03-25T09:45:20.984Z,981.91
2023-03-25T09:46:20.629Z,981.89
2023-03-25T09:47:20.527Z,981.92
2023-03-25T09:48:20.445Z,981.85
2023-03-25T09:49:20.359Z,981.92
2023-03-25T09:50:20.278Z,981.98
2023-03-25T09:51:20.201Z,982.02
2023-03-25T09:52:20.123Z,982.08
2023-03-25T09:53:20.045Z,982.11
2023-03-25T09:54:19.959Z,982.22
2023-03-25T09:55:19.884Z,982.23
2023-03-25T09:56:19.800Z,982.24
2023-03-25T09:57:19.746Z,982.18
2023-03-25T09:58:19.656Z,982.05
2023-03-25T09:59:19.762Z,982.09
2023-03-25T10:00:19.483Z,982.09
2023-03-25T10:01:19.436Z,982.03
2023-03-25T10:02:19.408Z,981.95
2023-03-25T10:03:19.325Z,982.02
2023-03-25T10:04:19.159Z,981.95
2023-03-25T10:05:19.082Z,981.96
2023-03-25T10:06:19.002Z,981.95
2023-03-25T10:07:18.917Z,982.01
2023-03-25T10:08:18.835Z,981.93
2023-03-25T10:09:18.757Z,981.87
2023-03-25T10:10:18.675Z,981.99
2023-03-25T10:11:18.599Z,982.09
2023-03-25T10:12:18.515Z,982.08
2023-03-25T10:13:20.031Z,982.07
2023-03-25T10:14:18.379Z,982.01
2023-03-25T10:15:18.277Z,982.07
2023-03-25T10:16:18.546Z,982.05
2023-03-25T10:17:18.127Z,982.04
2023-03-25T10:18:18.032Z,982.10
2023-03-25T10:19:17.957Z,982.12
2023-03-25T10:20:17.873Z,982.19
2023-03-25T10:21:17.795Z,982.25
2023-03-25T10:22:18.081Z,982.21
2023-03-25T10:23:17.632Z,982.28
2023-03-25T10:24:17.549Z,982.36
2023-03-25T10:25:17.471Z,982.28
2023-03-25T10:26:17.390Z,982.25
2023-03-25T10:27:17.311Z,982.38
2023-03-25T10:28:17.228Z,982.44
2023-03-25T10:29:17.149Z,982.38
2023-03-25T10:30:17.083Z,982.25
2023-03-25T10:31:17.063Z,982.22
2023-03-25T10:32:16.912Z,982.17
2023-03-25T10:33:16.825Z,982.13
2023-03-25T10:34:16.746Z,981.99
2023-03-25T10:35:16.838Z,982.02
2023-03-25T10:36:16.589Z,982.01
2023-03-25T10:37:16.505Z,982.05
2023-03-25T10:38:16.423Z,982.02
2023-03-25T10:39:16.357Z,982.09
2023-03-25T10:40:16.285Z,982.05
2023-03-25T10:41:16.195Z,982.07
2023-03-25T10:42:16.141Z,982.11
2023-03-25T10:43:16.029Z,981.97
2023-03-25T10:44:15.948Z,982.01
2023-03-25T10:45:15.885Z,981.98
2023-03-25T10:46:15.820Z,981.89
2023-03-25T10:47:15.860Z,982.04
2023-03-25T10:48:15.631Z,981.92
2023-03-25T10:49:15.551Z,981.80
2023-03-25T10:50:15.480Z,981.83
2023-03-25T10:51:15.445Z,981.86
2023-03-25T10:52:15.315Z,981.88
2023-03-25T10:53:15.233Z,981.78
2023-03-25T10:54:15.154Z,981.86
2023-03-25T10:55:15.076Z,981.81
2023-03-25T10:56:14.997Z,981.84
2023-03-25T10:57:14.914Z,981.78
2023-03-25T10:58:14.933Z,981.71
2023-03-25T10:59:14.763Z,981.71
2023-03-25T11:00:14.687Z,981.66
2023-03-25T11:01:14.675Z,981.59
2023-03-25T11:02:14.572Z,981.60
2023-03-25T11:03:14.524Z,981.62
2023-03-25T11:04:14.351Z,981.61
2023-03-25T11:05:14.282Z,981.59
2023-03-25T11:06:14.193Z,981.65
2023-03-25T11:07:14.112Z,981.45
2023-03-25T11:08:24.081Z,981.43
2023-03-25T11:09:14.250Z,981.43
2023-03-25T11:10:13.880Z,981.68
2023-03-25T11:11:13.794Z,981.76
2023-03-25T11:12:13.717Z,981.83
2023-03-25T11:13:13.632Z,981.94
2023-03-25T11:14:13.725Z,981.92
2023-03-25T11:15:13.480Z,981.88
2023-03-25T11:37:33.757Z,982.65
2023-03-25T11:38:33.646Z,982.69
2023-03-25T11:39:33.599Z,982.66
2023-03-25T11:40:33.516Z,982.39
2023-03-25T11:41:33.903Z,982.56
2023-03-25T11:42:33.752Z,982.46
2023-03-25T11:43:33.243Z,982.67
2023-03-25T11:44:33.174Z,982.76
2023-03-25T11:45:35.452Z,982.81
2023-03-25T11:46:33.011Z,982.72
2023-03-25T11:47:32.937Z,982.71
2023-03-25T11:48:32.839Z,982.86
2023-03-25T11:49:32.758Z,982.80
2023-03-25T11:50:32.687Z,982.88
2023-03-25T11:52:15.094Z,982.85
2023-03-25T11:53:15.039Z,982.92
2023-03-25T11:54:14.935Z,982.77
2023-03-25T11:55:14.859Z,982.76
2023-03-25T11:56:14.790Z,982.73
2023-03-25T11:57:14.718Z,982.76
2023-03-25T11:58:14.635Z,982.83
2023-03-25T11:59:14.597Z,982.78
2023-03-25T12:00:14.489Z,982.77
2023-03-25T12:01:14.414Z,982.71
2023-03-25T12:03:14.408Z,982.69
2023-03-25T12:04:14.203Z,982.74
2023-03-25T12:05:14.134Z,982.72
2023-03-25T12:06:14.082Z,982.81
2023-03-25T12:07:13.986Z,982.84
2023-03-25T12:08:14.366Z,982.72
2023-03-25T12:09:13.867Z,982.84
2023-03-25T12:11:01.273Z,982.58
2023-03-25T12:12:01.197Z,982.80
2023-03-25T12:13:01.132Z,982.78
2023-03-25T12:14:01.058Z,982.47
2023-03-25T12:15:01.000Z,982.88
2023-03-25T12:16:00.977Z,982.76
2023-03-25T12:17:00.858Z,982.41
2023-03-25T12:18:00.804Z,982.50
2023-03-25T12:19:00.710Z,982.47
2023-03-25T12:20:00.640Z,982.81
2023-03-25T12:21:01.021Z,982.84
2023-03-25T12:22:00.498Z,982.81
2023-03-25T12:23:00.435Z,982.83
2023-03-25T12:24:00.359Z,982.81
2023-03-25T12:25:00.562Z,982.86
2023-03-25T12:26:00.220Z,982.31
2023-03-25T12:27:00.151Z,982.22
2023-03-25T12:28:00.107Z,982.15
2023-03-25T12:29:00.012Z,982.28
2023-03-25T12:29:59.940Z,982.55
2023-03-25T12:30:59.918Z,982.62
2023-03-25T12:31:59.801Z,982.69
2023-03-25T12:32:59.780Z,982.67
2023-03-25T12:33:59.657Z,982.26
2023-03-25T12:34:59.592Z,982.55
2023-03-25T12:35:59.577Z,982.71
2023-03-25T12:36:59.548Z,982.61
2023-03-25T12:37:59.779Z,982.66
2023-03-25T12:38:59.310Z,982.56
2023-03-25T12:39:59.978Z,982.56
2023-03-25T12:40:59.343Z,982.63
2023-03-25T12:41:59.096Z,982.65
2023-03-25T12:42:59.075Z,982.64
2023-03-25T12:43:58.968Z,982.61
2023-03-25T12:44:58.891Z,982.59
2023-03-25T12:45:58.885Z,982.58
2023-03-25T12:46:58.756Z,982.64
2023-03-25T12:47:58.708Z,982.38
2023-03-25T12:48:58.626Z,982.65
2023-03-25T12:49:58.548Z,982.67
2023-03-25T12:50:58.488Z,982.63
2023-03-25T12:51:58.664Z,982.58
2023-03-25T12:52:58.346Z,982.59
2023-03-25T12:53:58.293Z,982.59
2023-03-25T12:54:58.209Z,982.55
2023-03-25T12:55:58.142Z,982.62
2023-03-25T12:56:58.116Z,982.45
2023-03-25T12:57:58.015Z,982.57
2023-03-25T12:58:57.944Z,982.52
2023-03-25T12:59:57.903Z,982.47
2023-03-25T13:00:57.896Z,982.61
2023-03-25T13:01:57.774Z,982.56
2023-03-25T13:02:57.745Z,982.61
2023-03-25T13:03:57.619Z,982.61
2023-03-25T13:04:57.546Z,982.56
2023-03-25T13:05:57.468Z,982.76
2023-03-25T13:06:57.500Z,982.61
2023-03-25T13:07:57.333Z,982.61
2023-03-25T13:08:57.276Z,982.54
2023-03-25T13:09:57.198Z,982.58
2023-03-25T13:10:57.158Z,982.72
2023-03-25T13:11:57.063Z,982.55
2023-03-25T13:12:57.021Z,982.57
2023-03-25T13:13:56.937Z,982.22
2023-03-25T13:14:56.868Z,982.20
2023-03-25T13:15:56.789Z,982.24
2023-03-25T13:16:56.723Z,982.07
2023-03-25T13:17:56.688Z,982.08
2023-03-25T13:18:56.591Z,982.19
2023-03-25T13:19:56.515Z,982.15
2023-03-25T13:20:56.445Z,982.14
2023-03-25T13:21:56.529Z,982.13
2023-03-25T13:22:56.345Z,982.03
2023-03-25T13:24:56.197Z,982.03
2023-03-25T13:25:56.271Z,982.00
2023-03-25T13:26:56.015Z,982.02
2023-03-25T13:30:21.861Z,981.91
2023-03-25T13:31:21.589Z,982.00
2023-03-25T13:32:21.686Z,982.01
2023-03-25T13:33:21.612Z,981.92
2023-03-25T13:34:21.294Z,981.94
2023-03-25T13:35:21.330Z,981.94
2023-03-25T13:36:22.281Z,982.01
2023-03-25T13:37:24.739Z,982.02
2023-03-25T13:38:20.993Z,982.11
2023-03-25T13:39:20.915Z,982.00
2023-03-25T13:40:20.836Z,982.00
2023-03-25T13:41:20.758Z,981.99
2023-03-25T13:42:20.689Z,982.17
2023-03-25T13:43:20.605Z,982.09
2023-03-25T13:44:20.530Z,981.95
2023-03-25T13:45:20.452Z,981.94
2023-03-25T13:46:20.479Z,981.95
2023-03-25T13:47:20.301Z,982.05
2023-03-25T13:48:20.525Z,982.62
2023-03-25T13:49:20.385Z,982.73
2023-03-25T13:50:20.077Z,982.58
2023-03-25T13:51:19.991Z,982.54
2023-03-25T13:52:19.936Z,982.63
2023-03-25T13:53:19.846Z,981.99
2023-03-25T13:54:21.821Z,981.99
2023-03-25T13:55:19.694Z,982.09
2023-03-25T13:56:19.622Z,981.92
2023-03-25T13:57:19.545Z,982.44
2023-03-25T13:58:19.478Z,981.85
2023-03-25T13:59:19.608Z,981.79
2023-03-25T14:00:21.751Z,981.97
2023-03-25T14:01:19.280Z,981.92
2023-03-25T14:02:19.190Z,981.92
2023-03-25T14:03:19.353Z,981.78
2023-03-25T14:04:19.276Z,981.87
2023-03-25T14:05:19.042Z,981.87